createdAt,value
2023-03-25T00:00:32.810Z,10.47
2023-03-25T00:03:37.451Z,10.44
2023-03-25T00:06:39.141Z,10.42
2023-03-25T00:09:40.528Z,10.43
2023-03-25T00:12:42.601Z,10.38
2023-03-25T00:15:47.512Z,10.36
2023-03-25T00:18:49.832Z,10.29
2023-03-25T00:21:52.102Z,10.24
2023-03-25T00:24:53.639Z,10.30
2023-03-25T00:27:55.015Z,10.29
2023-03-25T00:31:01.018Z,10.24
2023-03-25T00:34:02.651Z,10.19
2023-03-25T00:37:04.034Z,10.17
2023-03-25T00:40:06.167Z,10.24
2023-03-25T00:43:07.638Z,10.23
2023-03-25T00:46:09.285Z,10.17
2023-03-25T00:49:12.127Z,10.13
2023-03-25T00:52:14.213Z,10.14
2023-03-25T00:55:16.010Z,10.17
2023-03-25T00:58:17.443Z,10.22
2023-03-25T01:01:27.141Z,10.18
2023-03-25T01:04:29.665Z,10.13
2023-03-25T01:07:32.643Z,10.19
2023-03-25T01:10:37.595Z,10.17
2023-03-25T01:13:39.015Z,10.17
2023-03-25T01:16:40.449Z,10.20
2023-03-25T01:19:42.110Z,10.22
2023-03-25T01:22:43.649Z,10.20
2023-03-25T01:25:45.162Z,10.16
2023-03-25T01:28:46.552Z,10.22
2023-03-25T01:31:48.851Z,10.26
2023-03-25T01:34:50.279Z,10.32
2023-03-25T01:37:54.534Z,10.41
2023-03-25T01:40:57.186Z,10.32
2023-03-25T01:44:02.483Z,10.25
2023-03-25T01:47:06.712Z,10.21
2023-03-25T01:50:08.627Z,10.20
2023-03-25T01:53:10.567Z,10.28
2023-03-25T01:56:15.826Z,10.24
2023-03-25T01:59:20.419Z,10.16
2023-03-25T02:02:25.380Z,9.91
2023-03-25T02:05:35.797Z,9.84
2023-03-25T02:08:41.528Z,9.59
2023-03-25T02:11:43.072Z,9.46
2023-03-25T02:14:44.558Z,9.38
2023-03-25T02:17:46.549Z,9.28
2023-03-25T02:21:23.168Z,9.22
2023-03-25T02:24:53.959Z,9.14
2023-03-25T02:28:10.148Z,9.23
2023-03-25T02:31:38.536Z,9.20
2023-03-25T02:35:01.855Z,9.32
2023-03-25T02:38:28.163Z,9.21
2023-03-25T02:41:48.172Z,9.21
2023-03-25T02:44:53.029Z,9.17
2023-03-25T02:48:00.888Z,9.21
2023-03-25T02:51:10.965Z,9.20
2023-03-25T02:54:13.913Z,9.09
2023-03-25T02:57:19.014Z,9.10
2023-03-25T03:00:28.460Z,9.20
2023-03-25T03:03:29.899Z,9.14
2023-03-25T03:06:39.900Z,9.14
2023-03-25T03:09:48.647Z,9.13
2023-03-25T03:13:05.445Z,9.09
2023-03-25T03:16:21.852Z,9.02
2023-03-25T03:19:38.266Z,9.02
2023-03-25T03:22:46.797Z,9.13
2023-03-25T03:25:54.083Z,9.08
2023-03-25T03:29:00.889Z,9.08
2023-03-25T03:32:07.363Z,9.09
2023-03-25T03:35:20.261Z,9.11
2023-03-25T03:38:25.998Z,9.10
2023-03-25T03:41:29.138Z,9.09
2023-03-25T03:44:36.602Z,9.17
2023-03-25T03:47:43.631Z,9.12
2023-03-25T03:50:53.411Z,9.09
2023-03-25T03:54:00.500Z,9.07
2023-03-25T03:57:08.386Z,9.09
2023-03-25T04:00:23.873Z,9.02
2023-03-25T04:03:39.122Z,9.13
2023-03-25T04:07:01.254Z,9.09
2023-03-25T04:10:14.570Z,9.09
2023-03-25T04:13:17.381Z,9.12
2023-03-25T04:16:19.063Z,9.10
2023-03-25T04:19:20.535Z,9.13
2023-03-25T04:22:22.124Z,9.18
2023-03-25T04:25:25.228Z,9.12
2023-03-25T04:28:26.681Z,9.10
2023-03-25T04:31:30.968Z,9.11
2023-03-25T04:34:32.476Z,9.19
2023-03-25T04:37:36.796Z,9.11
2023-03-25T04:40:40.464Z,9.14
2023-03-25T04:43:44.990Z,9.15
2023-03-25T04:46:46.614Z,9.29
2023-03-25T04:49:48.059Z,9.25
2023-03-25T04:52:50.985Z,9.24
2023-03-25T04:55:52.956Z,9.24
2023-03-25T04:58:54.517Z,9.27
2023-03-25T05:01:56.504Z,9.24
2023-03-25T05:05:02.111Z,9.17
2023-03-25T05:08:03.645Z,9.28
2023-03-25T05:11:05.273Z,9.23
2023-03-25T05:14:07.137Z,9.21
2023-03-25T05:17:08.524Z,9.21
2023-03-25T05:20:11.411Z,9.18
2023-03-25T05:23:17.646Z,9.13
2023-03-25T05:26:20.594Z,9.10
2023-03-25T05:29:22.606Z,9.09
2023-03-25T05:32:34.833Z,9.03
2023-03-25T05:35:37.320Z,9.05
2023-03-25T05:38:44.195Z,8.97
2023-03-25T05:41:45.996Z,8.87
2023-03-25T05:44:50.993Z,8.78
2023-03-25T05:47:52.477Z,8.83
2023-03-25T05:50:56.507Z,8.79
2023-03-25T05:53:59.154Z,8.74
2023-03-25T05:57:00.603Z,8.81
2023-03-25T06:00:03.121Z,8.92
2023-03-25T06:03:13.111Z,8.90
2023-03-25T06:06:18.939Z,8.96
2023-03-25T06:09:20.737Z,8.96
2023-03-25T06:12:23.882Z,9.07
2023-03-25T06:15:33.713Z,9.11
2023-03-25T06:18:36.395Z,9.10
2023-03-25T06:21:38.204Z,9.10
2023-03-25T06:24:41.119Z,9.19
2023-03-25T06:27:42.671Z,9.13
2023-03-25T06:30:48.167Z,9.18
2023-03-25T06:33:51.100Z,9.38
2023-03-25T06:36:54.310Z,9.44
2023-03-25T06:39:56.433Z,9.48
2023-03-25T06:42:59.607Z,9.60
2023-03-25T06:46:26.674Z,9.70
2023-03-25T06:49:44.777Z,9.79
2023-03-25T06:52:46.268Z,9.95
2023-03-25T06:55:47.927Z,10.03
2023-03-25T06:58:49.500Z,10.22
2023-03-25T07:01:51.096Z,10.24
2023-03-25T07:04:52.678Z,10.26
2023-03-25T07:07:54.163Z,10.29
2023-03-25T07:11:01.474Z,10.49
2023-03-25T07:14:02.923Z,10.55
2023-03-25T07:17:04.732Z,10.57
2023-03-25T07:20:06.872Z,10.67
2023-03-25T07:23:08.384Z,10.80
2023-03-25T07:26:09.801Z,10.81
2023-03-25T07:29:11.197Z,10.85
2023-03-25T07:32:13.504Z,11.05
2023-03-25T07:35:15.293Z,11.04
2023-03-25T07:38:16.732Z,10.88
2023-03-25T07:41:18.143Z,10.98
2023-03-25T07:44:36.117Z,10.93
2023-03-25T07:47:37.768Z,10.78
2023-03-25T07:50:39.262Z,10.88
2023-03-25T07:53:42.956Z,10.90
2023-03-25T07:56:44.409Z,10.96
2023-03-25T07:59:45.995Z,10.97
2023-03-25T08:02:47.540Z,10.97
2023-03-25T08:05:49.065Z,10.95
2023-03-25T08:08:50.718Z,11.11
2023-03-25T08:11:52.178Z,11.32
2023-03-25T08:14:53.567Z,11.44
2023-03-25T08:17:55.095Z,11.55
2023-03-25T08:20:56.501Z,11.70
2023-03-25T08:23:58.485Z,11.56
2023-03-25T08:27:00.642Z,11.37
2023-03-25T08:30:17.094Z,11.21
2023-03-25T08:33:18.538Z,11.08
2023-03-25T08:36:23.277Z,10.87
2023-03-25T08:39:30.356Z,10.87
2023-03-25T08:42:31.771Z,10.82
2023-03-25T08:45:34.762Z,10.80
2023-03-25T08:48:36.426Z,10.79
2023-03-25T08:51:37.877Z,10.75
2023-03-25T08:54:39.395Z,10.62
2023-03-25T08:57:42.329Z,10.34
2023-03-25T09:00:43.827Z,10.26
2023-03-25T09:03:46.640Z,10.24
2023-03-25T09:07:11.108Z,10.29
2023-03-25T09:10:12.407Z,10.41
2023-03-25T09:13:13.966Z,10.50
2023-03-25T09:16:15.560Z,10.57
2023-03-25T09:19:18.096Z,10.75
2023-03-25T09:22:19.482Z,11.16
2023-03-25T09:25:21.743Z,11.41
2023-03-25T09:28:24.169Z,11.52
2023-03-25T09:31:26.141Z,11.55
2023-03-25T09:34:28.150Z,11.62
2023-03-25T09:37:29.533Z,11.46
2023-03-25T09:40:31.699Z,11.56
2023-03-25T09:43:39.261Z,11.44
2023-03-25T09:46:41.031Z,11.37
2023-03-25T09:49:53.529Z,11.44
2023-03-25T09:53:01.950Z,11.62
2023-03-25T09:56:07.645Z,11.66
2023-03-25T09:59:18.199Z,11.56
2023-03-25T10:02:31.866Z,11.65
2023-03-25T10:05:50.571Z,11.55
2023-03-25T10:09:07.315Z,11.72
2023-03-25T10:12:27.088Z,11.79
2023-03-25T10:15:46.503Z,11.94
2023-03-25T10:19:17.289Z,12.02
2023-03-25T10:22:28.784Z,12.21
2023-03-25T10:25:35.063Z,12.44
2023-03-25T10:28:43.535Z,12.51
2023-03-25T10:32:12.565Z,12.68
2023-03-25T10:35:21.098Z,12.84
2023-03-25T10:38:24.438Z,12.82
2023-03-25T10:41:30.863Z,12.85
2023-03-25T10:44:32.299Z,13.07
2023-03-25T10:47:37.883Z,12.83
2023-03-25T10:50:41.874Z,12.86
2023-03-25T10:53:47.567Z,12.84
2023-03-25T10:56:55.412Z,12.68
2023-03-25T11:00:17.625Z,12.57
2023-03-25T11:03:34.447Z,12.50
2023-03-25T11:06:41.416Z,12.42
2023-03-25T11:09:43.020Z,12.24
2023-03-25T11:12:48.265Z,12.01
2023-03-25T11:15:53.866Z,12.06
2023-03-25T11:18:55.662Z,12.24
2023-03-25T11:22:01.647Z,12.19
2023-03-25T11:25:07.283Z,12.06
2023-03-25T11:28:27.362Z,11.90
2023-03-25T11:31:33.281Z,11.99
2023-03-25T11:34:41.970Z,12.20
2023-03-25T11:37:47.884Z,12.82
2023-03-25T11:40:52.868Z,12.95
2023-03-25T11:43:54.457Z,13.09
2023-03-25T11:47:05.480Z,13.33
2023-03-25T11:50:17.653Z,13.06
2023-03-25T11:53:21.308Z,11.48
2023-03-25T11:56:28.772Z,9.83
2023-03-25T11:59:42.687Z,9.39
2023-03-25T12:02:44.239Z,9.31
2023-03-25T12:06:05.023Z,9.50
2023-03-25T12:09:11.717Z,9.98
2023-03-25T12:12:32.169Z,10.42
2023-03-25T12:15:51.569Z,10.73
2023-03-25T12:19:16.221Z,10.94
2023-03-25T12:22:48.959Z,11.12
2023-03-25T12:26:04.435Z,11.73
2023-03-25T12:29:05.787Z,12.12
2023-03-25T12:32:16.277Z,12.49
2023-03-25T12:35:47.771Z,12.49
2023-03-25T12:39:06.205Z,12.34
2023-03-25T12:42:27.627Z,12.24
2023-03-25T12:45:59.955Z,11.99
2023-03-25T12:49:10.808Z,12.06
2023-03-25T12:52:33.230Z,12.15
2023-03-25T12:55:53.361Z,12.25
2023-03-25T12:59:09.702Z,12.31
2023-03-25T13:02:19.911Z,12.44
2023-03-25T13:05:30.856Z,12.71
2023-03-25T13:08:56.658Z,12.81
2023-03-25T13:12:09.105Z,12.80
2023-03-25T13:15:46.217Z,12.97
2023-03-25T13:19:11.326Z,13.20
2023-03-25T13:22:20.640Z,13.45
2023-03-25T13:25:36.576Z,13.48
2023-03-25T13:28:46.736Z,13.50
2023-03-25T13:31:49.663Z,13.69
2023-03-25T13:35:03.714Z,13.74
2023-03-25T13:38:24.628Z,14.08
2023-03-25T13:41:34.213Z,14.31
2023-03-25T13:44:42.934Z,14.56
2023-03-25T13:47:52.735Z,14.36
2023-03-25T13:50:56.255Z,14.44
2023-03-25T13:54:06.875Z,14.33
2023-03-25T13:57:27.010Z,14.32
2023-03-25T14:01:21.365Z,14.62
2023-03-25T14:04:42.472Z,15.23
2023-03-25T14:08:03.573Z,15.68
2023-03-25T14:11:16.791Z,15.84
2023-03-25T14:14:22.235Z,15.50
2023-03-25T14:17:23.860Z,15.16
2023-03-25T14:20:41.349Z,15.35
2023-03-25T14:23:44.545Z,15.67
2023-03-25T14:26:54.155Z,15.70
2023-03-25T14:29:58.661Z,15.79
2023-03-25T14:33:03.766Z,16.02
2023-03-25T14:36:06.210Z,15.81
2023-03-25T14:39:32.056Z,15.73
2023-03-25T14:42:42.407Z,15.63
2023-03-25T14:46:10.304Z,15.75
2023-03-25T14:49:22.706Z,16.09
2023-03-25T14:52:45.214Z,15.98
2023-03-25T14:55:47.747Z,16.14
2023-03-25T14:58:54.863Z,15.86
2023-03-25T15:02:04.093Z,16.13
2023-03-25T15:05:11.823Z,16.05
2023-03-25T15:08:17.411Z,16.27
2023-03-25T15:11:33.479Z,16.32
2023-03-25T15:14:38.690Z,16.41
2023-03-25T15:17:40.100Z,16.27
2023-03-25T15:20:42.239Z,16.16
2023-03-25T15:23:47.908Z,15.56
2023-03-25T15:26:49.803Z,15.83
2023-03-25T15:30:23.929Z,16.08
2023-03-25T15:33:44.420Z,16.17
2023-03-25T15:37:06.543Z,16.07
2023-03-25T15:40:14.469Z,16.43
2023-03-25T15:43:21.993Z,16.59
2023-03-25T15:46:37.573Z,16.60
2023-03-25T15:50:00.234Z,16.42
2023-03-25T15:53:06.129Z,16.28
2023-03-25T15:56:17.335Z,16.26
2023-03-25T15:59:30.019Z,16.10
2023-03-25T16:02:39.366Z,16.01
2023-03-25T16:05:47.442Z,15.49
2023-03-25T16:08:49.951Z,15.12
2023-03-25T16:11:51.893Z,15.03
2023-03-25T16:14:53.341Z,15.19
2023-03-25T16:17:56.768Z,15.02
2023-03-25T16:21:01.585Z,14.87
2023-03-25T16:24:07.658Z,14.71
2023-03-25T16:27:11.826Z,14.57
2023-03-25T16:30:19.694Z,14.63
2023-03-25T16:33:30.328Z,14.81
2023-03-25T16:36:31.781Z,14.76
2023-03-25T16:39:35.448Z,14.59
2023-03-25T16:42:37.198Z,14.51
2023-03-25T16:45:39.318Z,14.30
2023-03-25T16:48:47.292Z,14.19
2023-03-25T16:51:51.862Z,14.12
2023-03-25T16:54:53.243Z,14.03
2023-03-25T16:57:54.807Z,14.04
2023-03-25T17:00:57.806Z,14.02
2023-03-25T17:04:22.080Z,14.06
2023-03-25T17:07:27.819Z,13.98
2023-03-25T17:10:33.051Z,14.13
2023-03-25T17:13:42.375Z,14.02
2023-03-25T17:16:46.290Z,14.02
2023-03-25T17:19:51.569Z,14.02
2023-03-25T17:22:57.779Z,14.09
2023-03-25T17:26:07.385Z,14.03
2023-03-25T17:29:12.525Z,14.00
2023-03-25T17:32:17.902Z,13.92
2023-03-25T17:35:30.274Z,13.90
2023-03-25T17:38:38.197Z,13.87
2023-03-25T17:41:40.256Z,13.78
2023-03-25T17:44:45.208Z,13.79
2023-03-25T17:47:47.164Z,13.74
2023-03-25T17:50:54.195Z,13.71
2023-03-25T17:53:56.449Z,13.69
2023-03-25T17:56:57.995Z,13.65
2023-03-25T17:59:59.469Z,13.63
2023-03-25T18:03:01.448Z,13.68
2023-03-25T18:06:03.575Z,13.65
2023-03-25T18:09:24.316Z,13.56
2023-03-25T18:12:25.773Z,13.56
2023-03-25T18:15:27.757Z,13.45
2023-03-25T18:18:29.147Z,12.93
2023-03-25T18:21:30.776Z,12.43
2023-03-25T18:24:33.736Z,12.00
2023-03-25T18:27:43.151Z,11.68
2023-03-25T18:30:50.913Z,11.44
2023-03-25T18:33:53.032Z,11.35
2023-03-25T18:36:54.500Z,11.27
2023-03-25T18:39:56.376Z,11.26
2023-03-25T18:42:57.786Z,11.14
2023-03-25T18:45:59.270Z,11.07
2023-03-25T18:49:02.588Z,10.96
2023-03-25T18:52:04.127Z,11.02
2023-03-25T18:55:06.025Z,10.80
2023-03-25T18:58:20.372Z,10.88
2023-03-25T19:01:21.926Z,10.72
2023-03-25T19:04:23.461Z,10.61
2023-03-25T19:07:25.021Z,10.80
2023-03-25T19:10:29.357Z,10.76
2023-03-25T19:13:30.755Z,10.71
2023-03-25T19:16:32.328Z,10.84
2023-03-25T19:19:33.794Z,10.73
2023-03-25T19:22:35.318Z,10.73
2023-03-25T19:25:36.943Z,10.72
2023-03-25T19:28:38.365Z,10.70
2023-03-25T19:31:42.292Z,10.74
2023-03-25T19:34:51.247Z,10.76
2023-03-25T19:37:53.002Z,10.75
2023-03-25T19:41:20.946Z,10.80
2023-03-25T19:44:22.457Z,10.84
2023-03-25T19:47:23.854Z,10.70
2023-03-25T19:50:30.374Z,10.74
2023-03-25T19:53:31.803Z,10.64
2023-03-25T19:56:33.197Z,10.52
2023-03-25T19:59:36.082Z,10.51
2023-03-25T20:02:37.697Z,10.59
2023-03-25T20:05:39.960Z,10.53
2023-03-25T20:08:41.340Z,10.53
2023-03-25T20:11:42.727Z,10.66
2023-03-25T20:14:44.222Z,10.51
2023-03-25T20:17:47.736Z,10.47
2023-03-25T20:20:49.190Z,10.51
2023-03-25T20:23:50.739Z,10.44
2023-03-25T20:26:52.322Z,10.48
2023-03-25T20:29:54.483Z,10.56
2023-03-25T20:32:55.932Z,10.54
2023-03-25T20:35:57.437Z,10.47
2023-03-25T20:38:59.333Z,10.49
2023-03-25T20:42:01.256Z,10.47
2023-03-25T20:45:03.008Z,10.49
2023-03-25T20:48:06.007Z,10.43
2023-03-25T20:51:10.320Z,10.31
2023-03-25T20:54:15.603Z,10.29
2023-03-25T20:57:17.143Z,10.28
2023-03-25T21:00:18.602Z,10.26
2023-03-25T21:03:20.044Z,10.19
2023-03-25T21:06:24.368Z,10.20
2023-03-25T21:09:28.127Z,10.10
2023-03-25T21:12:42.490Z,10.10
2023-03-25T21:15:45.947Z,10.06
2023-03-25T21:18:49.200Z,10.00
2023-03-25T21:21:50.717Z,10.11
2023-03-25T21:24:52.233Z,9.98
2023-03-25T21:27:54.056Z,10.02
2023-03-25T21:31:19.930Z,10.05
2023-03-25T21:34:21.962Z,10.01
2023-03-25T21:37:23.378Z,10.01
2023-03-25T21:40:24.843Z,9.98
2023-03-25T21:43:27.452Z,10.00
2023-03-25T21:46:29.101Z,10.03
2023-03-25T21:49:30.874Z,10.01
2023-03-25T21:52:32.282Z,10.02
2023-03-25T21:55:34.166Z,10.07
2023-03-25T21:58:36.596Z,10.09
2023-03-25T22:01:41.676Z,10.17
2023-03-25T22:04:43.319Z,10.25
2023-03-25T22:07:44.981Z,10.18
2023-03-25T22:10:46.387Z,10.18
2023-03-25T22:13:49.171Z,10.15
2023-03-25T22:16:50.695Z,10.20
2023-03-25T22:19:52.101Z,10.15
2023-03-25T22:22:53.770Z,10.20
2023-03-25T22:25:55.452Z,10.28
2023-03-25T22:29:00.554Z,10.16
2023-03-25T22:32:06.899Z,10.21
2023-03-25T22:35:08.824Z,10.17
2023-03-25T22:38:10.278Z,10.22
2023-03-25T22:41:13.653Z,10.12
2023-03-25T22:44:17.612Z,10.09
2023-03-25T22:47:19.021Z,10.13
2023-03-25T22:50:20.627Z,9.99
2023-03-25T22:53:22.884Z,10.04
2023-03-25T22:56:25.745Z,9.95
2023-03-25T22:59:27.151Z,9.96
2023-03-25T23:02:28.587Z,10.08
2023-03-25T23:05:30.173Z,10.03
2023-03-25T23:08:37.805Z,10.08
2023-03-25T23:11:39.248Z,10.06
2023-03-25T23:14:42.459Z,10.08
2023-03-25T23:17:43.924Z,10.04
2023-03-25T23:20:48.564Z,9.90
2023-03-25T23:23:52.746Z,9.90
2023-03-25T23:26:55.636Z,9.82
2023-03-25T23:29:58.183Z,9.77
2023-03-25T23:32:59.607Z,9.61
2023-03-25T23:36:02.763Z,9.54
2023-03-25T23:39:07.125Z,9.44
2023-03-25T23:42:09.023Z,9.50
2023-03-25T23:45:10.902Z,9.61
2023-03-25T23:48:12.436Z,9.56
2023-03-25T23:51:20.262Z,9.61
2023-03-25T23:54:21.816Z,9.51
2023-03-25T23:57:23.181Z,9.54
